Harrisonburg, VA (22801)

6:06 PM EDT on May 25, 2017 (GMT -0400)
Pleasant Valley Station | | Change Station
Active Advisory: Areal Flood Warning

Elev 1227 ft 38.40 °N, 78.90 °W | Updated 9 seconds ago

Mostly Cloudy
Mostly Cloudy
62.1 °F
Feels Like 62.1 °F
N
6.9
Wind Variable Wind from NE
Gusts 11.0 mph

Today
High -- | Low -- °F
--% Chance of Precip.
Yesterday
High -- | Low -- °F
Precip. -- in
Pressure 29.51 in
Visibility 10.0 miles
Clouds Scattered Clouds 4400 ft
Scattered Clouds 9000 ft
Dew Point 54 °F
Humidity 76%
Rainfall 0.97 in
Snow Depth Not available.
5:56 AM 8:28 PM
New Moon, 0% visible
METAR KSHD 252155Z AUTO 23015G19KT 10SM SCT044 SCT090 20/11 A2951 RMK AO2 LTG DSNT NE THRU SE T02010105
Pressure 29.51 in
Visibility 10.0 miles
Clouds Scattered Clouds 4400 ft
Scattered Clouds 9000 ft
Dew Point 54 °F
Humidity 76%
Rainfall 0.97 in
Snow Depth Not available.
5:56 AM 8:28 PM
New Moon, 0% visible
METAR KSHD 252155Z AUTO 23015G19KT 10SM SCT044 SCT090 20/11 A2951 RMK AO2 LTG DSNT NE THRU SE T02010105

Get Your Daily Forecast Email!

Thanks for signing up!

Be on the lookout for a verification email in your inbox.

You'll start receiving severe weather alerts in your inbox..

×

10-Day Weather Forecast

Almanac

Astronomy

May. 25, 2017 Rise Set
Actual Time
Civil Twilight
Nautical Twilight
Astronomical Twilight
Moon
Length of Visible Light
Length of Day
Tomorrow will be .
, % of the Moon is Illuminated

Today's Extremes

State Highs State Lows

Community

WunderPhotos

Category 6

Welcome to Category 6. This is the collective home for Weather Underground's featured writeups by Dr. Jeff Masters (right), Bob Henson (left), Chris Burt, and other regular contributors.

Nearby

Air Quality

  Air Quality AQ Index Pollutant
Not available.

Snow Depth

Station Depth Elevation

Earthquake Activity

City Distance Mag. Time & Date
Minimum magnitude displayed is 2.5.

Coastal Water Temperatures

Place Temperature

Stations

Nearby Weather Stations

Station Location Temp. Windchill Dew Point Humidity Wind Precip. Elev Updated Type
                   

Watches & Warnings

Areal Flood Warning
Issued: 5:13 PM EDT May. 25, 2017 – National Weather Service

The National Weather Service in Sterling Virginia has extended the

* Flood Warning for...
south central Rockingham County in western Virginia...
northeastern Augusta County in western Virginia...

* until 830 PM EDT

* at 511 PM EDT, reporting gauges indicate flooding continuing on
the Middle River near Grottoes. The river is nearing
crest. Livestock fields may be flooded at these river levels.

* Some locations that will experience flooding include...
Grottoes, Weyers Cave, and Port Republic.

Precautionary/preparedness actions...

Turn around, don't drown when encountering flooded roads. Most flood
deaths occur in vehicles.


Lat... Lon 3832 7877 3823 7884 3828 7892 3834 7888


Ads